sensor_id;sensor_type;location;lat;lon;timestamp;P1;durP1;ratioP1;P2;durP2;ratioP2
44328;SDS011;30039;51.462;6.892;2022-07-10T00:02:40;3.30;;;0.93;;
44328;SDS011;30039;51.462;6.892;2022-07-10T00:05:26;3.80;;;0.98;;
44328;SDS011;30039;51.462;6.892;2022-07-10T00:08:12;2.65;;;1.00;;
44328;SDS011;30039;51.462;6.892;2022-07-10T00:10:59;4.50;;;0.90;;
44328;SDS011;30039;51.462;6.892;2022-07-10T00:13:54;1.63;;;0.90;;
44328;SDS011;30039;51.462;6.892;2022-07-10T00:16:39;2.45;;;1.15;;
44328;SDS011;30039;51.462;6.892;2022-07-10T00:19:25;2.33;;;0.88;;
44328;SDS011;30039;51.462;6.892;2022-07-10T00:22:11;2.90;;;1.00;;
44328;SDS011;30039;51.462;6.892;2022-07-10T00:24:56;3.85;;;1.05;;
44328;SDS011;30039;51.462;6.892;2022-07-10T00:27:42;4.43;;;1.10;;
44328;SDS011;30039;51.462;6.892;2022-07-10T00:30:28;3.40;;;1.08;;
44328;SDS011;30039;51.462;6.892;2022-07-10T00:33:13;5.97;;;0.98;;
44328;SDS011;30039;51.462;6.892;2022-07-10T00:35:59;1.77;;;0.80;;
44328;SDS011;30039;51.462;6.892;2022-07-10T00:38:44;3.50;;;1.02;;
44328;SDS011;30039;51.462;6.892;2022-07-10T00:41:30;5.78;;;1.10;;
44328;SDS011;30039;51.462;6.892;2022-07-10T00:44:15;4.28;;;0.90;;
44328;SDS011;30039;51.462;6.892;2022-07-10T00:47:02;4.63;;;1.08;;
44328;SDS011;30039;51.462;6.892;2022-07-10T00:49:48;5.43;;;0.90;;
44328;SDS011;30039;51.462;6.892;2022-07-10T00:52:34;3.78;;;1.25;;
44328;SDS011;30039;51.462;6.892;2022-07-10T00:55:23;2.83;;;0.98;;
44328;SDS011;30039;51.462;6.892;2022-07-10T00:58:10;2.25;;;0.70;;
44328;SDS011;30039;51.462;6.892;2022-07-10T01:00:56;5.60;;;1.02;;
44328;SDS011;30039;51.462;6.892;2022-07-10T01:03:42;4.32;;;1.15;;
44328;SDS011;30039;51.462;6.892;2022-07-10T01:06:28;4.95;;;1.23;;
44328;SDS011;30039;51.462;6.892;2022-07-10T01:09:14;3.40;;;0.90;;
44328;SDS011;30039;51.462;6.892;2022-07-10T01:12:01;1.60;;;0.80;;
44328;SDS011;30039;51.462;6.892;2022-07-10T01:14:47;3.55;;;0.95;;
44328;SDS011;30039;51.462;6.892;2022-07-10T01:17:38;2.90;;;1.00;;
44328;SDS011;30039;51.462;6.892;2022-07-10T01:20:34;4.15;;;1.15;;
44328;SDS011;30039;51.462;6.892;2022-07-10T01:23:20;3.70;;;1.20;;
44328;SDS011;30039;51.462;6.892;2022-07-10T01:26:08;3.65;;;0.90;;
44328;SDS011;30039;51.462;6.892;2022-07-10T01:28:54;4.00;;;1.15;;
44328;SDS011;30039;51.462;6.892;2022-07-10T01:31:40;6.30;;;1.00;;
44328;SDS011;30039;51.462;6.892;2022-07-10T01:34:26;3.22;;;1.02;;
44328;SDS011;30039;51.462;6.892;2022-07-10T01:37:11;2.47;;;1.00;;
44328;SDS011;30039;51.462;6.892;2022-07-10T01:39:57;6.82;;;0.80;;
44328;SDS011;30039;51.462;6.892;2022-07-10T01:42:42;4.13;;;1.45;;
44328;SDS011;30039;51.462;6.892;2022-07-10T01:45:29;5.93;;;1.13;;
44328;SDS011;30039;51.462;6.892;2022-07-10T01:48:14;1.77;;;1.10;;
44328;SDS011;30039;51.462;6.892;2022-07-10T01:51:00;4.22;;;1.20;;
44328;SDS011;30039;51.462;6.892;2022-07-10T01:53:47;6.18;;;1.30;;
44328;SDS011;30039;51.462;6.892;2022-07-10T01:56:33;4.95;;;1.02;;
44328;SDS011;30039;51.462;6.892;2022-07-10T01:59:19;4.13;;;0.98;;
44328;SDS011;30039;51.462;6.892;2022-07-10T02:02:04;3.55;;;1.27;;
44328;SDS011;30039;51.462;6.892;2022-07-10T02:04:51;3.00;;;1.10;;
44328;SDS011;30039;51.462;6.892;2022-07-10T02:07:39;5.53;;;1.40;;
44328;SDS011;30039;51.462;6.892;2022-07-10T02:10:24;4.45;;;0.95;;
44328;SDS011;30039;51.462;6.892;2022-07-10T02:13:10;2.30;;;0.73;;
44328;SDS011;30039;51.462;6.892;2022-07-10T02:15:57;3.13;;;0.80;;
44328;SDS011;30039;51.462;6.892;2022-07-10T02:18:44;3.92;;;0.80;;
44328;SDS011;30039;51.462;6.892;2022-07-10T02:21:30;3.28;;;1.00;;
44328;SDS011;30039;51.462;6.892;2022-07-10T02:24:17;2.30;;;1.13;;
44328;SDS011;30039;51.462;6.892;2022-07-10T02:27:02;6.25;;;1.02;;
44328;SDS011;30039;51.462;6.892;2022-07-10T02:29:48;2.22;;;0.80;;
44328;SDS011;30039;51.462;6.892;2022-07-10T02:32:35;4.40;;;0.90;;
44328;SDS011;30039;51.462;6.892;2022-07-10T02:35:21;2.75;;;0.70;;
44328;SDS011;30039;51.462;6.892;2022-07-10T02:38:07;3.45;;;0.88;;
44328;SDS011;30039;51.462;6.892;2022-07-10T02:40:52;6.07;;;1.00;;
44328;SDS011;30039;51.462;6.892;2022-07-10T02:43:38;3.53;;;0.85;;
44328;SDS011;30039;51.462;6.892;2022-07-10T02:46:24;4.45;;;1.25;;
44328;SDS011;30039;51.462;6.892;2022-07-10T02:49:09;3.03;;;1.23;;
44328;SDS011;30039;51.462;6.892;2022-07-10T02:51:55;2.28;;;1.05;;
44328;SDS011;30039;51.462;6.892;2022-07-10T02:54:41;4.43;;;0.95;;
44328;SDS011;30039;51.462;6.892;2022-07-10T02:57:28;3.35;;;0.80;;
44328;SDS011;30039;51.462;6.892;2022-07-10T03:00:13;3.80;;;0.70;;
44328;SDS011;30039;51.462;6.892;2022-07-10T03:03:01;3.25;;;1.42;;
44328;SDS011;30039;51.462;6.892;2022-07-10T03:05:50;3.28;;;1.08;;
44328;SDS011;30039;51.462;6.892;2022-07-10T03:08:36;3.83;;;1.10;;
44328;SDS011;30039;51.462;6.892;2022-07-10T03:11:21;3.40;;;1.10;;
44328;SDS011;30039;51.462;6.892;2022-07-10T03:14:07;2.22;;;0.90;;
44328;SDS011;30039;51.462;6.892;2022-07-10T03:16:53;2.30;;;0.75;;
44328;SDS011;30039;51.462;6.892;2022-07-10T03:19:39;5.72;;;0.98;;
44328;SDS011;30039;51.462;6.892;2022-07-10T03:22:25;3.47;;;1.00;;
44328;SDS011;30039;51.462;6.892;2022-07-10T03:25:12;2.88;;;1.10;;
44328;SDS011;30039;51.462;6.892;2022-07-10T03:27:58;5.28;;;0.88;;
44328;SDS011;30039;51.462;6.892;2022-07-10T03:30:45;6.15;;;0.95;;
44328;SDS011;30039;51.462;6.892;2022-07-10T03:33:32;2.92;;;1.30;;
44328;SDS011;30039;51.462;6.892;2022-07-10T03:36:18;1.90;;;0.68;;
44328;SDS011;30039;51.462;6.892;2022-07-10T03:39:03;5.57;;;1.20;;
44328;SDS011;30039;51.462;6.892;2022-07-10T03:41:51;4.28;;;1.08;;
44328;SDS011;30039;51.462;6.892;2022-07-10T03:44:36;5.18;;;1.23;;
44328;SDS011;30039;51.462;6.892;2022-07-10T03:47:23;2.70;;;1.00;;
44328;SDS011;30039;51.462;6.892;2022-07-10T03:50:09;2.80;;;0.82;;
44328;SDS011;30039;51.462;6.892;2022-07-10T03:52:54;3.95;;;1.17;;
44328;SDS011;30039;51.462;6.892;2022-07-10T03:55:41;4.10;;;0.98;;
44328;SDS011;30039;51.462;6.892;2022-07-10T03:58:27;6.07;;;1.45;;
44328;SDS011;30039;51.462;6.892;2022-07-10T04:01:14;5.13;;;1.33;;
44328;SDS011;30039;51.462;6.892;2022-07-10T04:04:00;2.78;;;1.15;;
44328;SDS011;30039;51.462;6.892;2022-07-10T04:06:45;4.13;;;1.30;;
44328;SDS011;30039;51.462;6.892;2022-07-10T04:09:31;6.22;;;1.30;;
44328;SDS011;30039;51.462;6.892;2022-07-10T04:12:17;3.58;;;1.58;;
44328;SDS011;30039;51.462;6.892;2022-07-10T04:15:03;4.65;;;1.27;;
44328;SDS011;30039;51.462;6.892;2022-07-10T04:17:55;2.97;;;1.10;;
44328;SDS011;30039;51.462;6.892;2022-07-10T04:20:42;4.32;;;1.20;;
44328;SDS011;30039;51.462;6.892;2022-07-10T04:23:27;2.85;;;1.08;;
44328;SDS011;30039;51.462;6.892;2022-07-10T04:26:13;4.13;;;1.00;;
44328;SDS011;30039;51.462;6.892;2022-07-10T04:28:59;3.50;;;1.08;;
44328;SDS011;30039;51.462;6.892;2022-07-10T04:31:46;4.53;;;1.17;;
44328;SDS011;30039;51.462;6.892;2022-07-10T04:34:32;3.83;;;1.20;;
44328;SDS011;30039;51.462;6.892;2022-07-10T04:37:17;4.18;;;1.00;;
44328;SDS011;30039;51.462;6.892;2022-07-10T04:40:03;4.53;;;1.30;;
44328;SDS011;30039;51.462;6.892;2022-07-10T04:45:41;5.35;;;1.23;;
44328;SDS011;30039;51.462;6.892;2022-07-10T04:48:27;5.53;;;1.40;;
44328;SDS011;30039;51.462;6.892;2022-07-10T04:51:13;4.75;;;1.25;;
44328;SDS011;30039;51.462;6.892;2022-07-10T04:53:58;4.32;;;1.33;;
44328;SDS011;30039;51.462;6.892;2022-07-10T04:56:46;7.55;;;1.20;;
44328;SDS011;30039;51.462;6.892;2022-07-10T04:59:32;3.10;;;1.30;;
44328;SDS011;30039;51.462;6.892;2022-07-10T05:02:17;5.13;;;1.30;;
44328;SDS011;30039;51.462;6.892;2022-07-10T05:05:03;7.90;;;1.45;;
44328;SDS011;30039;51.462;6.892;2022-07-10T05:07:49;3.53;;;0.93;;
44328;SDS011;30039;51.462;6.892;2022-07-10T05:10:36;4.95;;;1.20;;
44328;SDS011;30039;51.462;6.892;2022-07-10T05:13:22;3.75;;;1.45;;
44328;SDS011;30039;51.462;6.892;2022-07-10T05:16:07;6.43;;;1.38;;
44328;SDS011;30039;51.462;6.892;2022-07-10T05:18:53;3.33;;;1.20;;
44328;SDS011;30039;51.462;6.892;2022-07-10T05:21:39;6.18;;;1.45;;
44328;SDS011;30039;51.462;6.892;2022-07-10T05:24:24;5.85;;;1.23;;
44328;SDS011;30039;51.462;6.892;2022-07-10T05:27:10;5.05;;;1.33;;
44328;SDS011;30039;51.462;6.892;2022-07-10T05:29:56;8.07;;;1.42;;
44328;SDS011;30039;51.462;6.892;2022-07-10T05:32:42;11.15;;;2.72;;
44328;SDS011;30039;51.462;6.892;2022-07-10T05:35:28;4.43;;;1.15;;
44328;SDS011;30039;51.462;6.892;2022-07-10T05:38:13;5.25;;;1.27;;
44328;SDS011;30039;51.462;6.892;2022-07-10T05:40:59;5.03;;;1.30;;
44328;SDS011;30039;51.462;6.892;2022-07-10T05:43:45;5.15;;;1.60;;
44328;SDS011;30039;51.462;6.892;2022-07-10T05:46:31;3.22;;;1.05;;
44328;SDS011;30039;51.462;6.892;2022-07-10T05:49:18;3.40;;;1.10;;
44328;SDS011;30039;51.462;6.892;2022-07-10T05:52:04;3.15;;;1.10;;
44328;SDS011;30039;51.462;6.892;2022-07-10T05:54:50;6.00;;;1.42;;
44328;SDS011;30039;51.462;6.892;2022-07-10T05:57:36;6.63;;;1.10;;
44328;SDS011;30039;51.462;6.892;2022-07-10T06:00:22;5.70;;;1.02;;
44328;SDS011;30039;51.462;6.892;2022-07-10T06:03:08;5.53;;;1.35;;
44328;SDS011;30039;51.462;6.892;2022-07-10T06:05:54;3.72;;;1.40;;
44328;SDS011;30039;51.462;6.892;2022-07-10T06:08:39;4.03;;;0.98;;
44328;SDS011;30039;51.462;6.892;2022-07-10T06:11:25;5.57;;;1.30;;
44328;SDS011;30039;51.462;6.892;2022-07-10T06:14:10;6.75;;;1.10;;
44328;SDS011;30039;51.462;6.892;2022-07-10T06:16:56;3.30;;;1.55;;
44328;SDS011;30039;51.462;6.892;2022-07-10T06:19:42;6.60;;;1.17;;
44328;SDS011;30039;51.462;6.892;2022-07-10T06:22:28;7.07;;;1.40;;
44328;SDS011;30039;51.462;6.892;2022-07-10T06:25:17;5.78;;;1.17;;
44328;SDS011;30039;51.462;6.892;2022-07-10T06:28:02;3.00;;;1.10;;
44328;SDS011;30039;51.462;6.892;2022-07-10T06:30:48;8.55;;;1.33;;
44328;SDS011;30039;51.462;6.892;2022-07-10T06:33:35;6.07;;;1.27;;
44328;SDS011;30039;51.462;6.892;2022-07-10T06:36:20;5.60;;;1.15;;
44328;SDS011;30039;51.462;6.892;2022-07-10T06:39:06;4.47;;;1.20;;
44328;SDS011;30039;51.462;6.892;2022-07-10T06:41:52;2.03;;;0.95;;
44328;SDS011;30039;51.462;6.892;2022-07-10T06:44:37;5.05;;;1.20;;
44328;SDS011;30039;51.462;6.892;2022-07-10T06:47:27;5.28;;;1.08;;
44328;SDS011;30039;51.462;6.892;2022-07-10T06:50:35;6.15;;;1.30;;
44328;SDS011;30039;51.462;6.892;2022-07-10T06:53:21;3.22;;;1.15;;
44328;SDS011;30039;51.462;6.892;2022-07-10T06:56:15;4.07;;;1.08;;
44328;SDS011;30039;51.462;6.892;2022-07-10T06:59:01;3.90;;;1.17;;
44328;SDS011;30039;51.462;6.892;2022-07-10T07:01:47;4.55;;;1.60;;
44328;SDS011;30039;51.462;6.892;2022-07-10T07:04:38;3.22;;;1.00;;
44328;SDS011;30039;51.462;6.892;2022-07-10T07:07:26;3.78;;;1.17;;
44328;SDS011;30039;51.462;6.892;2022-07-10T07:10:12;4.00;;;1.25;;
44328;SDS011;30039;51.462;6.892;2022-07-10T07:13:10;6.65;;;1.27;;
44328;SDS011;30039;51.462;6.892;2022-07-10T07:15:55;2.75;;;1.00;;
44328;SDS011;30039;51.462;6.892;2022-07-10T07:18:45;4.70;;;1.30;;
44328;SDS011;30039;51.462;6.892;2022-07-10T07:21:44;3.33;;;1.58;;
44328;SDS011;30039;51.462;6.892;2022-07-10T07:28:13;6.07;;;1.20;;
44328;SDS011;30039;51.462;6.892;2022-07-10T07:31:00;3.28;;;1.20;;
44328;SDS011;30039;51.462;6.892;2022-07-10T07:33:53;4.03;;;1.10;;
44328;SDS011;30039;51.462;6.892;2022-07-10T07:36:40;4.38;;;0.95;;
44328;SDS011;30039;51.462;6.892;2022-07-10T07:39:27;3.50;;;1.10;;
44328;SDS011;30039;51.462;6.892;2022-07-10T07:42:18;2.55;;;1.30;;
44328;SDS011;30039;51.462;6.892;2022-07-10T07:45:10;3.47;;;1.10;;
44328;SDS011;30039;51.462;6.892;2022-07-10T07:47:57;4.30;;;1.10;;
44328;SDS011;30039;51.462;6.892;2022-07-10T07:50:44;10.27;;;1.30;;
44328;SDS011;30039;51.462;6.892;2022-07-10T07:53:30;4.90;;;1.35;;
44328;SDS011;30039;51.462;6.892;2022-07-10T07:56:17;4.10;;;1.00;;
44328;SDS011;30039;51.462;6.892;2022-07-10T08:02:34;3.50;;;1.15;;
44328;SDS011;30039;51.462;6.892;2022-07-10T08:05:28;4.60;;;1.17;;
44328;SDS011;30039;51.462;6.892;2022-07-10T08:08:21;4.68;;;1.02;;
44328;SDS011;30039;51.462;6.892;2022-07-10T08:11:25;6.05;;;1.35;;
44328;SDS011;30039;51.462;6.892;2022-07-10T08:14:13;3.67;;;1.10;;
44328;SDS011;30039;51.462;6.892;2022-07-10T08:16:59;6.90;;;1.30;;
44328;SDS011;30039;51.462;6.892;2022-07-10T08:19:45;5.00;;;1.13;;
44328;SDS011;30039;51.462;6.892;2022-07-10T08:22:33;5.53;;;1.20;;
44328;SDS011;30039;51.462;6.892;2022-07-10T08:25:20;7.43;;;1.17;;
44328;SDS011;30039;51.462;6.892;2022-07-10T08:28:07;6.25;;;1.30;;
44328;SDS011;30039;51.462;6.892;2022-07-10T08:30:55;5.18;;;1.20;;
44328;SDS011;30039;51.462;6.892;2022-07-10T08:33:42;5.20;;;1.00;;
44328;SDS011;30039;51.462;6.892;2022-07-10T08:36:29;5.13;;;1.38;;
44328;SDS011;30039;51.462;6.892;2022-07-10T08:39:14;5.20;;;1.70;;
44328;SDS011;30039;51.462;6.892;2022-07-10T08:42:01;4.18;;;1.15;;
44328;SDS011;30039;51.462;6.892;2022-07-10T08:44:47;9.80;;;2.05;;
44328;SDS011;30039;51.462;6.892;2022-07-10T08:47:38;5.50;;;1.55;;
44328;SDS011;30039;51.462;6.892;2022-07-10T08:50:26;2.95;;;1.20;;
44328;SDS011;30039;51.462;6.892;2022-07-10T08:53:15;3.53;;;1.15;;
44328;SDS011;30039;51.462;6.892;2022-07-10T08:56:03;3.90;;;1.63;;
44328;SDS011;30039;51.462;6.892;2022-07-10T08:58:49;2.70;;;1.30;;
44328;SDS011;30039;51.462;6.892;2022-07-10T09:01:37;5.65;;;1.98;;
44328;SDS011;30039;51.462;6.892;2022-07-10T09:04:26;6.75;;;2.00;;
44328;SDS011;30039;51.462;6.892;2022-07-10T09:07:11;6.22;;;2.72;;
44328;SDS011;30039;51.462;6.892;2022-07-10T09:09:58;4.85;;;2.80;;
44328;SDS011;30039;51.462;6.892;2022-07-10T09:15:49;5.68;;;2.42;;
44328;SDS011;30039;51.462;6.892;2022-07-10T09:18:35;4.43;;;1.98;;
44328;SDS011;30039;51.462;6.892;2022-07-10T09:21:22;5.28;;;2.15;;
44328;SDS011;30039;51.462;6.892;2022-07-10T09:24:08;6.75;;;1.80;;
44328;SDS011;30039;51.462;6.892;2022-07-10T09:27:00;4.13;;;1.80;;
44328;SDS011;30039;51.462;6.892;2022-07-10T09:32:38;4.95;;;2.00;;
44328;SDS011;30039;51.462;6.892;2022-07-10T09:35:29;5.43;;;2.33;;
44328;SDS011;30039;51.462;6.892;2022-07-10T09:38:56;5.57;;;3.15;;
44328;SDS011;30039;51.462;6.892;2022-07-10T09:41:43;5.18;;;3.00;;
44328;SDS011;30039;51.462;6.892;2022-07-10T09:44:30;7.22;;;3.60;;
44328;SDS011;30039;51.462;6.892;2022-07-10T09:47:22;8.50;;;5.05;;
44328;SDS011;30039;51.462;6.892;2022-07-10T09:50:19;9.15;;;6.90;;
44328;SDS011;30039;51.462;6.892;2022-07-10T09:53:06;9.85;;;6.88;;
44328;SDS011;30039;51.462;6.892;2022-07-10T09:55:52;15.88;;;8.18;;
44328;SDS011;30039;51.462;6.892;2022-07-10T09:58:39;12.50;;;8.00;;
44328;SDS011;30039;51.462;6.892;2022-07-10T10:01:26;10.60;;;7.70;;
44328;SDS011;30039;51.462;6.892;2022-07-10T10:04:15;13.52;;;7.85;;
44328;SDS011;30039;51.462;6.892;2022-07-10T10:07:02;10.98;;;5.10;;
44328;SDS011;30039;51.462;6.892;2022-07-10T10:09:51;9.15;;;5.30;;
44328;SDS011;30039;51.462;6.892;2022-07-10T10:12:48;9.32;;;4.30;;
44328;SDS011;30039;51.462;6.892;2022-07-10T10:15:39;7.97;;;4.00;;
44328;SDS011;30039;51.462;6.892;2022-07-10T10:18:25;11.20;;;4.32;;
44328;SDS011;30039;51.462;6.892;2022-07-10T10:21:14;8.43;;;5.13;;
44328;SDS011;30039;51.462;6.892;2022-07-10T10:27:36;12.45;;;6.93;;
44328;SDS011;30039;51.462;6.892;2022-07-10T10:33:53;11.52;;;5.93;;
44328;SDS011;30039;51.462;6.892;2022-07-10T10:39:51;8.15;;;5.07;;
44328;SDS011;30039;51.462;6.892;2022-07-10T10:45:36;9.32;;;4.57;;
44328;SDS011;30039;51.462;6.892;2022-07-10T10:48:23;5.93;;;4.20;;
44328;SDS011;30039;51.462;6.892;2022-07-10T10:51:08;5.97;;;3.80;;
44328;SDS011;30039;51.462;6.892;2022-07-10T10:54:04;4.60;;;3.20;;
44328;SDS011;30039;51.462;6.892;2022-07-10T11:00:30;5.25;;;2.70;;
44328;SDS011;30039;51.462;6.892;2022-07-10T11:03:23;4.22;;;2.45;;
44328;SDS011;30039;51.462;6.892;2022-07-10T11:06:12;3.08;;;1.90;;
44328;SDS011;30039;51.462;6.892;2022-07-10T11:12:10;5.45;;;2.42;;
44328;SDS011;30039;51.462;6.892;2022-07-10T11:15:00;6.78;;;4.15;;
44328;SDS011;30039;51.462;6.892;2022-07-10T11:24:37;5.30;;;1.92;;
44328;SDS011;30039;51.462;6.892;2022-07-10T11:27:02;3.55;;;2.00;;
44328;SDS011;30039;51.462;6.892;2022-07-10T11:29:56;5.97;;;4.50;;
44328;SDS011;30039;51.462;6.892;2022-07-10T11:32:43;2.33;;;1.48;;
44328;SDS011;30039;51.462;6.892;2022-07-10T11:35:29;2.42;;;1.40;;
44328;SDS011;30039;51.462;6.892;2022-07-10T11:38:26;3.30;;;1.52;;
44328;SDS011;30039;51.462;6.892;2022-07-10T11:41:16;2.17;;;1.40;;
44328;SDS011;30039;51.462;6.892;2022-07-10T11:44:03;3.35;;;1.77;;
44328;SDS011;30039;51.462;6.892;2022-07-10T11:46:51;2.53;;;1.55;;
44328;SDS011;30039;51.462;6.892;2022-07-10T11:49:45;3.83;;;1.42;;
44328;SDS011;30039;51.462;6.892;2022-07-10T11:52:34;3.22;;;1.50;;
44328;SDS011;30039;51.462;6.892;2022-07-10T11:55:23;1.65;;;1.27;;
44328;SDS011;30039;51.462;6.892;2022-07-10T11:58:18;2.42;;;1.48;;
44328;SDS011;30039;51.462;6.892;2022-07-10T12:01:04;2.05;;;1.17;;
44328;SDS011;30039;51.462;6.892;2022-07-10T12:03:55;2.03;;;1.10;;
44328;SDS011;30039;51.462;6.892;2022-07-10T12:06:42;2.38;;;1.30;;
44328;SDS011;30039;51.462;6.892;2022-07-10T12:09:30;2.42;;;1.20;;
44328;SDS011;30039;51.462;6.892;2022-07-10T12:12:16;4.40;;;1.33;;
44328;SDS011;30039;51.462;6.892;2022-07-10T12:15:07;3.13;;;1.30;;
44328;SDS011;30039;51.462;6.892;2022-07-10T12:17:53;3.03;;;1.63;;
44328;SDS011;30039;51.462;6.892;2022-07-10T12:20:38;5.57;;;1.55;;
44328;SDS011;30039;51.462;6.892;2022-07-10T12:23:27;3.97;;;1.65;;
44328;SDS011;30039;51.462;6.892;2022-07-10T12:26:14;2.63;;;1.30;;
44328;SDS011;30039;51.462;6.892;2022-07-10T12:29:02;4.75;;;1.60;;
44328;SDS011;30039;51.462;6.892;2022-07-10T12:31:54;2.78;;;1.30;;
44328;SDS011;30039;51.462;6.892;2022-07-10T12:34:41;5.07;;;1.73;;
44328;SDS011;30039;51.462;6.892;2022-07-10T12:37:32;2.75;;;1.42;;
44328;SDS011;30039;51.462;6.892;2022-07-10T12:40:31;5.60;;;1.60;;
44328;SDS011;30039;51.462;6.892;2022-07-10T12:43:24;3.10;;;1.50;;
44328;SDS011;30039;51.462;6.892;2022-07-10T12:46:15;5.45;;;1.48;;
44328;SDS011;30039;51.462;6.892;2022-07-10T12:51:47;4.70;;;1.58;;
44328;SDS011;30039;51.462;6.892;2022-07-10T12:54:33;4.43;;;1.73;;
44328;SDS011;30039;51.462;6.892;2022-07-10T12:57:20;3.08;;;1.38;;
44328;SDS011;30039;51.462;6.892;2022-07-10T13:00:06;4.45;;;1.40;;
44328;SDS011;30039;51.462;6.892;2022-07-10T13:05:46;4.53;;;1.42;;
44328;SDS011;30039;51.462;6.892;2022-07-10T13:08:44;4.22;;;1.50;;
44328;SDS011;30039;51.462;6.892;2022-07-10T13:11:31;4.20;;;1.35;;
44328;SDS011;30039;51.462;6.892;2022-07-10T13:14:16;3.30;;;1.30;;
44328;SDS011;30039;51.462;6.892;2022-07-10T13:17:03;2.17;;;1.10;;
44328;SDS011;30039;51.462;6.892;2022-07-10T13:19:51;1.85;;;1.17;;
44328;SDS011;30039;51.462;6.892;2022-07-10T13:22:43;4.88;;;1.30;;
44328;SDS011;30039;51.462;6.892;2022-07-10T13:25:38;2.20;;;0.90;;
44328;SDS011;30039;51.462;6.892;2022-07-10T13:28:26;2.72;;;1.20;;
44328;SDS011;30039;51.462;6.892;2022-07-10T13:31:13;3.05;;;1.17;;
44328;SDS011;30039;51.462;6.892;2022-07-10T13:34:00;2.35;;;0.98;;
44328;SDS011;30039;51.462;6.892;2022-07-10T13:36:55;3.45;;;1.40;;
44328;SDS011;30039;51.462;6.892;2022-07-10T13:39:41;2.75;;;1.13;;
44328;SDS011;30039;51.462;6.892;2022-07-10T13:42:37;3.90;;;1.20;;
44328;SDS011;30039;51.462;6.892;2022-07-10T13:45:26;2.05;;;1.05;;
44328;SDS011;30039;51.462;6.892;2022-07-10T13:48:18;1.75;;;1.05;;
44328;SDS011;30039;51.462;6.892;2022-07-10T13:51:09;2.83;;;1.20;;
44328;SDS011;30039;51.462;6.892;2022-07-10T13:53:54;5.22;;;1.20;;
44328;SDS011;30039;51.462;6.892;2022-07-10T13:56:41;2.60;;;1.20;;
44328;SDS011;30039;51.462;6.892;2022-07-10T13:59:29;1.92;;;1.13;;
44328;SDS011;30039;51.462;6.892;2022-07-10T14:02:17;4.72;;;1.30;;
44328;SDS011;30039;51.462;6.892;2022-07-10T14:05:04;1.90;;;1.20;;
44328;SDS011;30039;51.462;6.892;2022-07-10T14:08:01;2.63;;;1.20;;
44328;SDS011;30039;51.462;6.892;2022-07-10T14:10:49;4.32;;;1.65;;
44328;SDS011;30039;51.462;6.892;2022-07-10T14:13:35;4.05;;;1.20;;
44328;SDS011;30039;51.462;6.892;2022-07-10T14:16:21;4.88;;;2.20;;
44328;SDS011;30039;51.462;6.892;2022-07-10T14:19:08;3.55;;;1.50;;
44328;SDS011;30039;51.462;6.892;2022-07-10T14:21:54;3.00;;;1.70;;
44328;SDS011;30039;51.462;6.892;2022-07-10T14:24:42;3.33;;;1.42;;
44328;SDS011;30039;51.462;6.892;2022-07-10T14:30:23;2.78;;;1.10;;
44328;SDS011;30039;51.462;6.892;2022-07-10T14:33:20;5.50;;;1.60;;
44328;SDS011;30039;51.462;6.892;2022-07-10T14:36:06;6.03;;;1.30;;
44328;SDS011;30039;51.462;6.892;2022-07-10T14:38:55;3.17;;;1.58;;
44328;SDS011;30039;51.462;6.892;2022-07-10T14:41:41;3.60;;;1.33;;
44328;SDS011;30039;51.462;6.892;2022-07-10T14:44:27;3.03;;;1.17;;
44328;SDS011;30039;51.462;6.892;2022-07-10T14:47:13;2.78;;;1.20;;
44328;SDS011;30039;51.462;6.892;2022-07-10T14:50:00;2.22;;;1.20;;
44328;SDS011;30039;51.462;6.892;2022-07-10T14:52:46;4.78;;;1.40;;
44328;SDS011;30039;51.462;6.892;2022-07-10T14:55:32;6.60;;;1.38;;
44328;SDS011;30039;51.462;6.892;2022-07-10T14:58:19;2.22;;;1.10;;
44328;SDS011;30039;51.462;6.892;2022-07-10T15:01:07;4.35;;;1.20;;
44328;SDS011;30039;51.462;6.892;2022-07-10T15:06:45;4.25;;;1.13;;
44328;SDS011;30039;51.462;6.892;2022-07-10T15:09:32;2.35;;;1.13;;
44328;SDS011;30039;51.462;6.892;2022-07-10T15:12:20;1.98;;;1.20;;
44328;SDS011;30039;51.462;6.892;2022-07-10T15:15:06;3.17;;;1.15;;
44328;SDS011;30039;51.462;6.892;2022-07-10T15:17:56;3.47;;;1.30;;
44328;SDS011;30039;51.462;6.892;2022-07-10T15:20:41;2.17;;;1.17;;
44328;SDS011;30039;51.462;6.892;2022-07-10T15:23:32;2.50;;;1.20;;
44328;SDS011;30039;51.462;6.892;2022-07-10T15:26:18;1.15;;;0.90;;
44328;SDS011;30039;51.462;6.892;2022-07-10T15:29:05;4.95;;;1.42;;
44328;SDS011;30039;51.462;6.892;2022-07-10T15:31:52;3.80;;;1.20;;
44328;SDS011;30039;51.462;6.892;2022-07-10T15:34:40;2.33;;;1.13;;
44328;SDS011;30039;51.462;6.892;2022-07-10T15:37:34;1.40;;;0.90;;
44328;SDS011;30039;51.462;6.892;2022-07-10T15:40:30;3.55;;;1.20;;
44328;SDS011;30039;51.462;6.892;2022-07-10T15:43:16;4.45;;;2.20;;
44328;SDS011;30039;51.462;6.892;2022-07-10T15:46:06;3.78;;;1.92;;
44328;SDS011;30039;51.462;6.892;2022-07-10T15:51:49;4.93;;;1.52;;
44328;SDS011;30039;51.462;6.892;2022-07-10T15:54:36;3.58;;;1.50;;
44328;SDS011;30039;51.462;6.892;2022-07-10T15:57:23;4.15;;;1.20;;
44328;SDS011;30039;51.462;6.892;2022-07-10T16:00:10;2.40;;;1.00;;
44328;SDS011;30039;51.462;6.892;2022-07-10T16:02:58;2.00;;;0.98;;
44328;SDS011;30039;51.462;6.892;2022-07-10T16:05:45;2.08;;;1.58;;
44328;SDS011;30039;51.462;6.892;2022-07-10T16:08:33;2.35;;;1.52;;
44328;SDS011;30039;51.462;6.892;2022-07-10T16:11:32;5.38;;;2.10;;
44328;SDS011;30039;51.462;6.892;2022-07-10T16:14:18;3.67;;;1.58;;
44328;SDS011;30039;51.462;6.892;2022-07-10T16:20:32;6.15;;;1.70;;
44328;SDS011;30039;51.462;6.892;2022-07-10T16:23:28;2.33;;;1.50;;
44328;SDS011;30039;51.462;6.892;2022-07-10T16:26:14;2.38;;;1.35;;
44328;SDS011;30039;51.462;6.892;2022-07-10T16:29:02;3.00;;;1.70;;
44328;SDS011;30039;51.462;6.892;2022-07-10T16:31:49;7.80;;;2.28;;
44328;SDS011;30039;51.462;6.892;2022-07-10T16:34:35;4.95;;;2.05;;
44328;SDS011;30039;51.462;6.892;2022-07-10T16:37:20;3.25;;;1.40;;
44328;SDS011;30039;51.462;6.892;2022-07-10T16:40:06;3.22;;;1.42;;
44328;SDS011;30039;51.462;6.892;2022-07-10T16:42:52;3.22;;;1.02;;
44328;SDS011;30039;51.462;6.892;2022-07-10T16:45:45;2.75;;;1.27;;
44328;SDS011;30039;51.462;6.892;2022-07-10T16:48:30;2.90;;;1.08;;
44328;SDS011;30039;51.462;6.892;2022-07-10T16:51:16;2.97;;;1.25;;
44328;SDS011;30039;51.462;6.892;2022-07-10T16:56:52;4.60;;;1.23;;
44328;SDS011;30039;51.462;6.892;2022-07-10T16:59:37;1.90;;;1.00;;
44328;SDS011;30039;51.462;6.892;2022-07-10T17:02:24;1.52;;;1.10;;
44328;SDS011;30039;51.462;6.892;2022-07-10T17:05:09;4.00;;;2.25;;
44328;SDS011;30039;51.462;6.892;2022-07-10T17:07:56;2.03;;;1.08;;
44328;SDS011;30039;51.462;6.892;2022-07-10T17:10:45;3.88;;;1.45;;
44328;SDS011;30039;51.462;6.892;2022-07-10T17:13:39;1.73;;;1.10;;
44328;SDS011;30039;51.462;6.892;2022-07-10T17:16:25;3.40;;;1.30;;
44328;SDS011;30039;51.462;6.892;2022-07-10T17:19:10;2.17;;;1.23;;
44328;SDS011;30039;51.462;6.892;2022-07-10T17:21:57;3.45;;;1.00;;
44328;SDS011;30039;51.462;6.892;2022-07-10T17:24:44;2.83;;;1.48;;
44328;SDS011;30039;51.462;6.892;2022-07-10T17:27:30;2.85;;;1.00;;
44328;SDS011;30039;51.462;6.892;2022-07-10T17:30:26;1.38;;;1.00;;
44328;SDS011;30039;51.462;6.892;2022-07-10T17:33:13;2.08;;;1.27;;
44328;SDS011;30039;51.462;6.892;2022-07-10T17:36:00;3.15;;;1.33;;
44328;SDS011;30039;51.462;6.892;2022-07-10T17:38:48;1.77;;;1.13;;
44328;SDS011;30039;51.462;6.892;2022-07-10T17:41:37;1.67;;;0.93;;
44328;SDS011;30039;51.462;6.892;2022-07-10T17:44:23;2.50;;;1.15;;
44328;SDS011;30039;51.462;6.892;2022-07-10T17:47:10;3.55;;;1.10;;
44328;SDS011;30039;51.462;6.892;2022-07-10T17:49:55;2.17;;;1.17;;
44328;SDS011;30039;51.462;6.892;2022-07-10T17:52:44;3.38;;;1.30;;
44328;SDS011;30039;51.462;6.892;2022-07-10T17:55:37;2.08;;;1.20;;